createdAt,value
2017-11-23T00:03:20.654Z,2.67
2017-11-23T00:08:21.523Z,2.48
2017-11-23T00:13:22.336Z,2.51
2017-11-23T00:18:23.249Z,2.48
2017-11-23T00:23:27.232Z,2.54
2017-11-23T00:28:28.015Z,2.55
2017-11-23T00:33:28.803Z,2.47
2017-11-23T00:38:29.672Z,2.46
2017-11-23T00:43:30.484Z,2.39
2017-11-23T00:48:31.296Z,2.36
2017-11-23T00:53:32.097Z,2.35
2017-11-23T00:58:32.890Z,2.32
2017-11-23T01:03:33.661Z,2.29
2017-11-23T01:08:34.437Z,2.23
2017-11-23T01:13:35.241Z,2.18
2017-11-23T01:18:36.043Z,2.08
2017-11-23T01:23:36.844Z,2.13
2017-11-23T01:28:37.621Z,2.10
2017-11-23T01:33:38.411Z,2.19
2017-11-23T01:38:39.205Z,2.20
2017-11-23T01:43:39.968Z,2.09
2017-11-23T01:48:40.915Z,2.11
2017-11-23T01:53:41.735Z,2.14
2017-11-23T01:58:42.561Z,2.10
2017-11-23T02:03:43.424Z,1.85
2017-11-23T02:08:44.263Z,1.69
2017-11-23T02:13:45.050Z,1.68
2017-11-23T02:18:45.861Z,1.77
2017-11-23T02:23:46.663Z,1.77
2017-11-23T02:28:47.469Z,1.69
2017-11-23T02:33:48.305Z,1.76
2017-11-23T02:38:49.092Z,1.62
2017-11-23T02:43:49.935Z,1.71
2017-11-23T02:48:50.691Z,1.71
2017-11-23T02:53:51.550Z,1.72
2017-11-23T02:58:52.370Z,1.77
2017-11-23T03:03:53.198Z,1.73
2017-11-23T03:08:53.989Z,1.71
2017-11-23T03:13:54.811Z,1.53
2017-11-23T03:18:55.599Z,1.51
2017-11-23T03:23:56.388Z,1.42
2017-11-23T03:28:57.199Z,1.52
2017-11-23T03:33:57.990Z,1.41
2017-11-23T03:38:58.824Z,1.44
2017-11-23T03:43:59.652Z,1.23
2017-11-23T03:49:00.463Z,1.46
2017-11-23T03:54:01.242Z,1.54
2017-11-23T03:59:02.023Z,1.59
2017-11-23T04:04:02.778Z,1.63
2017-11-23T04:09:03.599Z,1.59
2017-11-23T04:14:04.375Z,1.56
2017-11-23T04:19:05.176Z,1.53
2017-11-23T04:24:05.966Z,1.49
2017-11-23T04:29:06.743Z,1.44
2017-11-23T04:34:07.542Z,1.30
2017-11-23T04:39:08.334Z,1.40
2017-11-23T04:44:09.140Z,1.43
2017-11-23T04:49:09.924Z,1.47
2017-11-23T04:54:10.718Z,1.34
2017-11-23T04:59:11.476Z,1.38
2017-11-23T05:04:12.291Z,1.32
2017-11-23T05:09:13.090Z,1.24
2017-11-23T05:14:13.847Z,1.24
2017-11-23T05:19:14.637Z,1.08
2017-11-23T05:24:15.414Z,0.90
2017-11-23T05:29:16.195Z,0.75
2017-11-23T05:34:16.970Z,0.85
2017-11-23T05:39:17.750Z,0.87
2017-11-23T05:44:18.522Z,0.85
2017-11-23T05:49:19.366Z,0.54
2017-11-23T05:54:20.154Z,0.58
2017-11-23T05:59:20.946Z,0.59
2017-11-23T06:04:21.729Z,0.59
2017-11-23T06:09:22.506Z,0.56
2017-11-23T06:14:23.282Z,0.50
2017-11-23T06:19:24.044Z,0.40
2017-11-23T06:24:24.824Z,0.60
2017-11-23T06:29:25.629Z,0.69
2017-11-23T06:34:26.383Z,0.71
2017-11-23T06:39:27.183Z,0.78
2017-11-23T06:44:27.987Z,0.76
2017-11-23T06:49:28.753Z,0.92
2017-11-23T06:54:29.566Z,1.16
2017-11-23T06:59:30.356Z,1.13
2017-11-23T07:04:31.134Z,1.09
2017-11-23T07:09:31.912Z,1.20
2017-11-23T07:14:32.686Z,1.34
2017-11-23T07:19:33.459Z,1.46
2017-11-23T07:24:34.242Z,1.52
2017-11-23T07:29:35.030Z,1.70
2017-11-23T07:34:35.791Z,1.69
2017-11-23T07:39:36.711Z,1.79
2017-11-23T07:44:37.467Z,2.06
2017-11-23T07:49:38.268Z,2.22
2017-11-23T07:54:39.044Z,2.42
2017-11-23T07:59:39.850Z,2.73
2017-11-23T08:04:40.635Z,3.20
2017-11-23T08:09:41.434Z,3.50
2017-11-23T08:14:42.215Z,3.94
2017-11-23T08:19:43.003Z,4.33
2017-11-23T08:24:43.787Z,4.31
2017-11-23T08:29:44.570Z,4.69
2017-11-23T08:34:45.341Z,4.67
2017-11-23T08:39:46.125Z,5.21
2017-11-23T08:44:46.915Z,4.94
2017-11-23T08:49:47.702Z,5.28
2017-11-23T08:54:54.446Z,5.43
2017-11-23T08:59:55.218Z,5.61
2017-11-23T09:04:55.990Z,5.48
2017-11-23T09:09:56.772Z,5.59
2017-11-23T09:14:57.560Z,5.64
2017-11-23T09:19:58.344Z,5.52
2017-11-23T09:24:59.110Z,5.80
2017-11-23T09:29:59.875Z,5.52
2017-11-23T09:35:00.643Z,6.00
2017-11-23T09:40:01.444Z,6.43
2017-11-23T09:45:02.219Z,6.46
2017-11-23T09:50:03.022Z,6.63
2017-11-23T09:55:03.812Z,6.63
2017-11-23T10:00:04.595Z,6.77
2017-11-23T10:05:05.376Z,6.98
2017-11-23T10:10:06.139Z,7.32
2017-11-23T10:15:06.968Z,7.54
2017-11-23T10:20:07.804Z,7.69
2017-11-23T10:25:08.578Z,7.47
2017-11-23T10:30:09.370Z,7.59
2017-11-23T10:35:10.175Z,7.99
2017-11-23T10:40:10.964Z,8.10
2017-11-23T10:45:11.722Z,7.80
2017-11-23T10:50:12.479Z,7.84
2017-11-23T10:55:13.278Z,7.92
2017-11-23T11:00:14.075Z,8.15
2017-11-23T11:05:14.881Z,7.87
2017-11-23T11:10:16.672Z,8.07
2017-11-23T11:15:17.488Z,7.89
2017-11-23T11:20:18.285Z,7.97
2017-11-23T11:25:19.072Z,7.96
2017-11-23T11:30:19.894Z,7.94
2017-11-23T11:35:20.703Z,8.04
2017-11-23T11:40:21.480Z,8.15
2017-11-23T11:45:22.350Z,8.39
2017-11-23T11:50:23.155Z,8.59
2017-11-23T11:55:23.972Z,8.95
2017-11-23T12:00:24.742Z,9.13
2017-11-23T12:05:25.528Z,9.18
2017-11-23T12:10:26.313Z,9.29
2017-11-23T12:15:32.232Z,9.58
2017-11-23T12:20:45.395Z,9.61
2017-11-23T12:25:56.307Z,9.60
2017-11-23T12:30:57.090Z,9.32
2017-11-23T12:35:57.881Z,9.18
2017-11-23T12:40:58.682Z,9.60
2017-11-23T12:45:59.492Z,9.60
2017-11-23T12:51:00.308Z,9.68
2017-11-23T12:56:01.152Z,9.46
2017-11-23T13:01:01.951Z,9.38
2017-11-23T13:06:06.429Z,9.43
2017-11-23T13:11:07.199Z,9.23
2017-11-23T13:16:07.958Z,9.22
2017-11-23T13:21:08.739Z,9.24
2017-11-23T13:26:09.514Z,9.10
2017-11-23T13:31:10.302Z,9.24
2017-11-23T13:36:11.121Z,9.34
2017-11-23T13:41:11.907Z,9.25
2017-11-23T13:46:12.737Z,9.32
2017-11-23T13:51:13.515Z,9.22
2017-11-23T13:56:14.303Z,9.29
2017-11-23T14:01:15.109Z,9.21
2017-11-23T14:06:15.875Z,9.26
2017-11-23T14:11:16.663Z,9.16
2017-11-23T14:16:17.451Z,9.21
2017-11-23T14:21:18.246Z,9.10
2017-11-23T14:26:19.034Z,9.01
2017-11-23T14:31:19.796Z,8.85
2017-11-23T14:36:20.579Z,8.62
2017-11-23T14:41:21.371Z,8.48
2017-11-23T14:46:22.180Z,8.48
2017-11-23T14:51:22.968Z,8.43
2017-11-23T14:56:23.765Z,8.35
2017-11-23T15:01:25.183Z,8.24
2017-11-23T15:06:26.001Z,8.18
2017-11-23T15:11:26.779Z,8.02
2017-11-23T15:16:27.727Z,7.92
2017-11-23T15:21:28.500Z,7.86
2017-11-23T15:26:29.315Z,7.75
2017-11-23T15:31:30.073Z,7.75
2017-11-23T15:36:30.853Z,7.64
2017-11-23T15:41:31.642Z,7.51
2017-11-23T15:46:33.341Z,7.31
2017-11-23T15:51:34.122Z,7.20
2017-11-23T15:56:34.920Z,7.06
2017-11-23T16:01:35.753Z,6.89
2017-11-23T16:06:36.709Z,6.94
2017-11-23T16:11:37.491Z,6.90
2017-11-23T16:16:38.282Z,6.84
2017-11-23T16:21:39.335Z,6.68
2017-11-23T16:26:40.137Z,6.54
2017-11-23T16:31:40.928Z,6.44
2017-11-23T16:36:41.728Z,6.45
2017-11-23T16:57:49.499Z,6.15
2017-11-23T17:18:52.096Z,5.92
2017-11-23T17:23:52.940Z,6.01
2017-11-23T17:28:53.706Z,5.91
2017-11-23T17:33:54.521Z,5.76
2017-11-23T17:38:55.303Z,5.66
2017-11-23T17:43:56.105Z,5.67
2017-11-23T17:48:56.988Z,5.59
2017-11-23T17:53:57.765Z,5.60
2017-11-23T17:58:58.580Z,5.50
2017-11-23T18:03:59.369Z,5.35
2017-11-23T18:09:00.138Z,5.30
2017-11-23T18:14:00.918Z,5.20
2017-11-23T18:19:01.715Z,5.17
2017-11-23T18:24:02.478Z,5.18
2017-11-23T18:29:03.251Z,5.30
2017-11-23T18:34:04.038Z,5.29
2017-11-23T18:39:04.861Z,5.08
2017-11-23T18:44:05.694Z,4.96
2017-11-23T18:49:06.496Z,4.93
2017-11-23T18:54:07.288Z,5.06
2017-11-23T19:14:59.837Z,4.68
2017-11-23T19:20:00.620Z,4.59
2017-11-23T19:25:01.448Z,4.49
2017-11-23T19:30:02.285Z,4.55
2017-11-23T19:35:03.136Z,4.64
2017-11-23T19:40:03.995Z,4.63
2017-11-23T19:45:04.859Z,4.66
2017-11-23T19:50:06.343Z,4.66
2017-11-23T19:55:07.216Z,4.58
2017-11-23T20:00:08.107Z,4.59
2017-11-23T20:05:08.965Z,4.70
2017-11-23T20:10:09.824Z,4.56
2017-11-23T20:15:10.669Z,4.63
2017-11-23T20:20:11.507Z,4.58
2017-11-23T20:25:12.343Z,4.60
2017-11-23T20:30:13.153Z,4.70
2017-11-23T20:35:14.022Z,4.48
2017-11-23T20:40:14.901Z,4.47
2017-11-23T20:45:15.734Z,4.40
2017-11-23T20:50:16.631Z,4.27
2017-11-23T20:55:17.511Z,4.24
2017-11-23T21:00:18.340Z,4.24
2017-11-23T21:05:19.200Z,4.25
2017-11-23T21:10:20.013Z,4.19
2017-11-23T21:15:20.832Z,4.08
2017-11-23T21:20:21.660Z,4.12
2017-11-23T21:25:22.515Z,4.12
2017-11-23T21:30:23.355Z,4.07
2017-11-23T21:35:24.192Z,4.15
2017-11-23T21:40:24.994Z,4.25
2017-11-23T21:45:25.819Z,4.34
2017-11-23T21:50:26.647Z,4.29
2017-11-23T21:55:27.483Z,4.31
2017-11-23T22:00:28.302Z,4.31
2017-11-23T22:05:29.131Z,4.19
2017-11-23T22:10:29.914Z,4.15
2017-11-23T22:15:30.689Z,4.23
2017-11-23T22:20:31.487Z,4.14
2017-11-23T22:25:32.297Z,4.06
2017-11-23T22:30:33.109Z,3.96
2017-11-23T22:35:33.979Z,3.79
2017-11-23T22:40:34.801Z,3.73
2017-11-23T22:45:35.674Z,3.71
2017-11-23T23:06:28.216Z,3.42
2017-11-23T23:11:29.010Z,3.45
2017-11-23T23:16:29.845Z,3.41
2017-11-23T23:21:30.648Z,3.48
2017-11-23T23:26:31.478Z,3.44
2017-11-23T23:31:32.268Z,3.41
2017-11-23T23:36:33.104Z,3.39
2017-11-23T23:41:33.899Z,3.33
2017-11-23T23:46:34.704Z,3.29
2017-11-23T23:51:35.479Z,3.33
2017-11-23T23:56:36.690Z,3.32
